Time;durP1;ratioP1;P1;durP2;ratioP2;P2;SDS_P1;SDS_P2;PMS_P1;PMS_P2;Temp;Humidity;BMP_temperature;BMP_pressure;BME280_temperature;BME280_humidity;BME280_pressure;Samples;Min_cycle;Max_cycle;Signal;HPM_P1;HPM_P2
2021/12/15 00:00:56;;;;;;;;;;;2.30;99.90;;;;;;4999906;28;19959;-76
2021/12/15 00:03:21;;;;;;;;;;;2.20;99.90;;;;;;5017568;28;19909;-76
2021/12/15 00:05:49;;;;;;;;;;;2.20;99.90;;;;;;5017613;28;19996;-76
2021/12/15 00:08:15;;;;;;;;;;;2.20;99.90;;;;;;5017703;28;19960;-76
2021/12/15 00:10:42;;;;;;;;;;;2.20;99.90;;;;;;4999697;28;19917;-76
2021/12/15 00:13:08;;;;;;;;;;;2.20;99.90;;;;;;5017565;28;19910;-76
2021/12/15 00:15:33;;;;;;;;;;;2.10;99.90;;;;;;5017469;28;20388;-76
2021/12/15 00:17:59;;;;;;;;;;;2.10;99.90;;;;;;5017568;28;19916;-76
2021/12/15 00:20:27;;;;;;;;;;;2.10;99.90;;;;;;5017482;28;19945;-76
2021/12/15 00:22:53;;;;;;;;;;;2.10;99.90;;;;;;5017554;28;19956;-76
2021/12/15 00:25:20;;;;;;;;;;;2.10;99.90;;;;;;4999718;28;20323;-76
2021/12/15 00:27:46;;;;;;;;;;;2.10;99.90;;;;;;5017366;28;19921;-76
2021/12/15 00:30:11;;;;;;;;;;;2.10;99.90;;;;;;5030409;28;19910;-76
2021/12/15 00:32:37;;;;;;;;;;;2.20;99.90;;;;;;4999860;28;19917;-76
2021/12/15 00:35:04;;;;;;;;;;;2.20;99.90;;;;;;5017778;28;19910;-76
2021/12/15 00:37:29;;;;;;;;;;;2.20;99.90;;;;;;5030038;28;19910;-76
2021/12/15 00:39:55;;;;;;;;;;;2.40;99.90;;;;;;5035821;28;20300;-76
2021/12/15 00:42:20;;;;;;;;;;;2.50;99.90;;;;;;5036851;28;19921;-76
2021/12/15 00:44:46;;;;;;;;;;;2.50;99.90;;;;;;5036990;28;20297;-76
2021/12/15 00:47:12;;;;;;;;;;;2.50;99.90;;;;;;5035782;28;19972;-76
2021/12/15 00:49:38;;;;;;;;;;;2.50;99.90;;;;;;5036864;28;19941;-76
2021/12/15 00:52:04;;;;;;;;;;;2.40;99.90;;;;;;5018597;28;19945;-76
2021/12/15 00:54:30;;;;;;;;;;;2.40;99.90;;;;;;5036937;28;19909;-76
2021/12/15 00:56:56;;;;;;;;;;;2.30;99.90;;;;;;5038520;28;19916;-76
2021/12/15 00:59:21;;;;;;;;;;;2.20;99.90;;;;;;5040419;28;19952;-76
2021/12/15 01:01:48;;;;;;;;;;;2.10;99.90;;;;;;5039045;28;19959;-76
2021/12/15 01:04:15;;;;;;;;;;;2.10;99.90;;;;;;5040283;28;19947;-76
2021/12/15 01:06:41;;;;;;;;;;;2.10;99.90;;;;;;5022957;28;19913;-76
2021/12/15 01:09:11;;;;;;;;;;;2.00;99.90;;;;;;5038937;28;19909;-76
2021/12/15 01:19:53;;;;;;;;;;;1.80;99.90;;;;;;5040472;28;19920;-76
2021/12/15 01:22:24;;;;;;;;;;;1.80;99.90;;;;;;5039134;28;19958;-75
2021/12/15 01:24:51;;;;;;;;;;;1.70;99.90;;;;;;5039926;28;19909;-76
2021/12/15 01:27:16;;;;;;;;;;;1.70;99.90;;;;;;5021732;28;20021;-76
2021/12/15 01:29:42;;;;;;;;;;;1.70;99.90;;;;;;5038297;28;20004;-76
2021/12/15 01:32:08;;;;;;;;;;;1.60;99.90;;;;;;5018875;28;20489;-76
2021/12/15 01:34:33;;;;;;;;;;;1.60;99.90;;;;;;5020548;28;19937;-76
2021/12/15 01:36:59;;;;;;;;;;;1.60;99.90;;;;;;5026725;28;19963;-76
2021/12/15 01:39:25;;;;;;;;;;;1.50;99.90;;;;;;5038317;28;19912;-76
2021/12/15 01:41:55;;;;;;;;;;;1.60;99.90;;;;;;5021635;28;19927;-76
2021/12/15 01:46:54;;;;;;;;;;;1.50;99.90;;;;;;5039938;28;19916;-76
2021/12/15 01:49:25;;;;;;;;;;;1.40;99.90;;;;;;5039491;28;20394;-76
2021/12/15 01:51:51;;;;;;;;;;;1.40;99.90;;;;;;5039644;28;19916;-75
2021/12/15 01:54:17;;;;;;;;;;;1.40;99.90;;;;;;5039398;28;19910;-76
2021/12/15 01:56:43;;;;;;;;;;;1.40;99.90;;;;;;5039175;28;19916;-76
2021/12/15 01:59:10;;;;;;;;;;;1.30;99.90;;;;;;5039325;28;20392;-75
2021/12/15 02:01:35;;;;;;;;;;;1.30;99.90;;;;;;5021506;28;20460;-76
2021/12/15 02:04:01;;;;;;;;;;;1.40;99.90;;;;;;5039205;28;19949;-76
2021/12/15 02:06:27;;;;;;;;;;;1.40;99.90;;;;;;5039171;28;19915;-76
2021/12/15 02:08:52;;;;;;;;;;;1.50;99.90;;;;;;5037398;28;19909;-76
2021/12/15 02:11:18;;;;;;;;;;;1.40;99.90;;;;;;5039111;28;19913;-76
2021/12/15 02:13:44;;;;;;;;;;;1.40;99.90;;;;;;5037745;28;19909;-76
2021/12/15 02:16:09;;;;;;;;;;;1.50;99.90;;;;;;5037826;28;19932;-76
2021/12/15 02:18:37;;;;;;;;;;;1.50;99.90;;;;;;5039043;28;19910;-76
2021/12/15 02:21:02;;;;;;;;;;;1.50;99.90;;;;;;5038986;28;19921;-76
2021/12/15 02:23:35;;;;;;;;;;;1.50;99.90;;;;;;5037863;28;20277;-76
2021/12/15 02:26:03;;;;;;;;;;;1.50;99.90;;;;;;5038728;28;19909;-76
2021/12/15 02:28:29;;;;;;;;;;;1.50;99.90;;;;;;5038475;28;19917;-76
2021/12/15 02:31:19;;;;;;;;;;;1.40;99.90;;;;;;5027403;28;19964;-76
2021/12/15 02:38:52;;;;;;;;;;;1.40;99.90;;;;;;5019086;28;19917;-76
2021/12/15 02:41:23;;;;;;;;;;;1.30;99.90;;;;;;5020112;28;19929;-76
2021/12/15 02:43:59;;;;;;;;;;;1.30;99.90;;;;;;5038657;28;19916;-76
2021/12/15 02:46:26;;;;;;;;;;;1.30;99.90;;;;;;5038430;28;19909;-76
2021/12/15 02:48:52;;;;;;;;;;;1.30;99.90;;;;;;5038515;28;19913;-76
2021/12/15 02:51:18;;;;;;;;;;;1.20;99.90;;;;;;5038353;28;19916;-76
2021/12/15 02:53:43;;;;;;;;;;;1.20;99.90;;;;;;5020567;28;19909;-76
2021/12/15 02:56:09;;;;;;;;;;;1.20;99.90;;;;;;5036925;28;19909;-76
2021/12/15 02:58:37;;;;;;;;;;;1.20;99.90;;;;;;5037034;28;19996;-76
2021/12/15 03:01:12;;;;;;;;;;;1.20;99.90;;;;;;5036915;28;19913;-75
2021/12/15 03:06:21;;;;;;;;;;;1.20;99.90;;;;;;5038614;28;19979;-76
2021/12/15 03:16:41;;;;;;;;;;;1.10;99.90;;;;;;5038236;28;19999;-75
2021/12/15 03:19:07;;;;;;;;;;;1.00;99.90;;;;;;5037474;28;19909;-75
2021/12/15 03:21:33;;;;;;;;;;;1.00;99.90;;;;;;5037937;28;19999;-76
2021/12/15 03:24:00;;;;;;;;;;;1.00;99.90;;;;;;5020215;28;19909;-76
2021/12/15 03:26:33;;;;;;;;;;;1.00;99.90;;;;;;5037821;28;19909;-76
2021/12/15 03:37:26;;;;;;;;;;;0.90;99.90;;;;;;5026709;28;19916;-77
2021/12/15 03:40:03;;;;;;;;;;;0.80;99.90;;;;;;5019787;28;19916;-76
2021/12/15 03:42:33;;;;;;;;;;;0.80;99.90;;;;;;5037595;28;19924;-76
2021/12/15 03:45:00;;;;;;;;;;;0.80;99.90;;;;;;5019350;28;19909;-76
2021/12/15 03:47:30;;;;;;;;;;;0.70;99.90;;;;;;5037540;28;19976;-76
2021/12/15 03:49:57;;;;;;;;;;;0.70;99.90;;;;;;5037659;28;19963;-75
2021/12/15 03:52:23;;;;;;;;;;;0.80;99.90;;;;;;5037800;28;19911;-76
2021/12/15 03:54:49;;;;;;;;;;;0.80;99.90;;;;;;5037579;28;19916;-75
2021/12/15 03:57:15;;;;;;;;;;;0.80;99.90;;;;;;5035917;28;19910;-76
2021/12/15 03:59:43;;;;;;;;;;;0.70;99.90;;;;;;5036351;28;19945;-75
2021/12/15 04:02:10;;;;;;;;;;;0.70;99.90;;;;;;5037294;28;19913;-76
2021/12/15 04:04:36;;;;;;;;;;;0.70;99.90;;;;;;5037610;28;19909;-76
2021/12/15 04:07:02;;;;;;;;;;;0.70;99.90;;;;;;5036026;28;19996;-76
2021/12/15 04:09:28;;;;;;;;;;;0.60;99.90;;;;;;5037644;28;19913;-76
2021/12/15 04:11:54;;;;;;;;;;;0.60;99.90;;;;;;5035733;28;19909;-75
2021/12/15 04:14:23;;;;;;;;;;;0.60;99.90;;;;;;5037403;28;19909;-75
2021/12/15 04:17:05;;;;;;;;;;;0.60;99.90;;;;;;5022818;28;19916;-78
2021/12/15 04:19:32;;;;;;;;;;;0.50;99.90;;;;;;5017450;28;19920;-76
2021/12/15 04:21:58;;;;;;;;;;;0.50;99.90;;;;;;4999781;28;19913;-78
2021/12/15 04:24:26;;;;;;;;;;;0.50;99.90;;;;;;5017509;28;19909;-78
2021/12/15 04:26:53;;;;;;;;;;;0.50;99.90;;;;;;5015568;28;19910;-76
2021/12/15 04:29:19;;;;;;;;;;;0.50;99.90;;;;;;5027853;28;20288;-79
2021/12/15 04:32:05;;;;;;;;;;;0.50;99.90;;;;;;5022110;28;19919;-77
2021/12/15 04:34:31;;;;;;;;;;;0.40;99.90;;;;;;5021545;28;19910;-77
2021/12/15 04:36:56;;;;;;;;;;;0.40;99.90;;;;;;5029236;28;20342;-75
2021/12/15 04:39:27;;;;;;;;;;;0.40;99.90;;;;;;5040744;28;19909;-75
2021/12/15 04:41:53;;;;;;;;;;;0.40;99.90;;;;;;5039171;28;19917;-75
2021/12/15 04:44:21;;;;;;;;;;;0.50;99.90;;;;;;5022837;28;20354;-77
2021/12/15 04:46:50;;;;;;;;;;;0.60;99.90;;;;;;5023041;28;19914;-78
2021/12/15 04:49:18;;;;;;;;;;;0.60;99.90;;;;;;5040993;28;19995;-79
2021/12/15 04:54:18;;;;;;;;;;;0.70;99.90;;;;;;5023922;28;19909;-78
2021/12/15 04:56:44;;;;;;;;;;;0.70;99.90;;;;;;5022620;28;19937;-78
2021/12/15 04:59:10;;;;;;;;;;;0.70;99.90;;;;;;5021445;28;19976;-78
2021/12/15 05:01:35;;;;;;;;;;;0.70;99.90;;;;;;5002731;28;19918;-78
2021/12/15 05:04:01;;;;;;;;;;;0.70;99.90;;;;;;5020728;28;19909;-76
2021/12/15 05:06:27;;;;;;;;;;;0.70;99.90;;;;;;5020882;28;19909;-76
2021/12/15 05:11:27;;;;;;;;;;;0.70;99.90;;;;;;5004902;28;19913;-78
2021/12/15 05:13:53;;;;;;;;;;;0.70;99.90;;;;;;5020712;28;19952;-78
2021/12/15 05:16:18;;;;;;;;;;;0.80;99.90;;;;;;5020518;28;19917;-76
2021/12/15 05:18:44;;;;;;;;;;;0.80;99.90;;;;;;5020525;28;19916;-76
2021/12/15 05:21:11;;;;;;;;;;;0.80;99.90;;;;;;5020356;28;19914;-75
2021/12/15 05:23:37;;;;;;;;;;;0.80;99.90;;;;;;5020582;28;19912;-75
2021/12/15 05:26:03;;;;;;;;;;;0.90;99.90;;;;;;5020152;28;19909;-75
2021/12/15 05:28:29;;;;;;;;;;;0.90;99.90;;;;;;5007138;28;19967;-75
2021/12/15 05:30:56;;;;;;;;;;;0.90;99.90;;;;;;5028476;28;20389;-75
2021/12/15 05:33:21;;;;;;;;;;;0.90;99.90;;;;;;5020096;28;19949;-75
2021/12/15 05:35:47;;;;;;;;;;;0.90;99.90;;;;;;5019225;28;19917;-76
2021/12/15 05:38:13;;;;;;;;;;;0.90;99.90;;;;;;5036409;28;20269;-76
2021/12/15 05:40:39;;;;;;;;;;;0.90;99.90;;;;;;5039534;28;20369;-75
2021/12/15 05:43:05;;;;;;;;;;;0.90;99.90;;;;;;5038770;28;19920;-75
2021/12/15 05:45:32;;;;;;;;;;;0.90;99.90;;;;;;5039801;28;19909;-75
2021/12/15 05:47:59;;;;;;;;;;;0.80;99.90;;;;;;5039612;28;19917;-75
2021/12/15 05:50:26;;;;;;;;;;;0.90;99.90;;;;;;5039620;28;19917;-76
2021/12/15 05:52:52;;;;;;;;;;;0.90;99.90;;;;;;5039437;28;19968;-78
2021/12/15 05:55:18;;;;;;;;;;;0.90;99.90;;;;;;5038400;28;20339;-76
2021/12/15 05:57:43;;;;;;;;;;;0.90;99.90;;;;;;5039383;28;19913;-75
2021/12/15 06:00:11;;;;;;;;;;;0.80;99.90;;;;;;5039678;28;19963;-75
2021/12/15 06:02:37;;;;;;;;;;;0.80;99.90;;;;;;5039225;28;19964;-75
2021/12/15 06:05:02;;;;;;;;;;;0.80;99.90;;;;;;5039586;28;19916;-76
2021/12/15 06:07:28;;;;;;;;;;;0.70;99.90;;;;;;5039186;28;19920;-76
2021/12/15 06:09:54;;;;;;;;;;;0.70;99.90;;;;;;5039582;28;19909;-75
2021/12/15 06:12:19;;;;;;;;;;;0.70;99.90;;;;;;5038946;28;19909;-75
2021/12/15 06:14:45;;;;;;;;;;;0.70;99.90;;;;;;5037918;28;19932;-76
2021/12/15 06:17:12;;;;;;;;;;;0.60;99.90;;;;;;5037751;28;19936;-78
2021/12/15 06:19:38;;;;;;;;;;;0.60;99.90;;;;;;5039176;28;19976;-78
2021/12/15 06:22:04;;;;;;;;;;;0.60;99.90;;;;;;5038926;28;19913;-78
2021/12/15 06:24:30;;;;;;;;;;;0.50;99.90;;;;;;5039092;28;19936;-78
2021/12/15 06:27:02;;;;;;;;;;;0.50;99.90;;;;;;5020712;28;20408;-78
2021/12/15 06:29:29;;;;;;;;;;;0.50;99.90;;;;;;5013543;28;19918;-77
2021/12/15 06:31:55;;;;;;;;;;;0.40;99.90;;;;;;5001359;28;19917;-77
2021/12/15 06:34:21;;;;;;;;;;;0.40;99.90;;;;;;5019331;28;19921;-78
2021/12/15 06:36:47;;;;;;;;;;;0.40;99.90;;;;;;5018757;28;19910;-79
2021/12/15 06:39:12;;;;;;;;;;;0.40;99.90;;;;;;5019017;28;19963;-78
2021/12/15 06:41:38;;;;;;;;;;;0.40;99.90;;;;;;5018699;28;19918;-78
2021/12/15 06:44:04;;;;;;;;;;;0.40;99.90;;;;;;5001188;28;19944;-78
2021/12/15 07:00:08;;;;;;;;;;;0.50;99.90;;;;;;5018698;28;19917;-78
2021/12/15 07:02:34;;;;;;;;;;;0.50;99.90;;;;;;5018304;28;19914;-78
2021/12/15 07:04:59;;;;;;;;;;;0.50;99.90;;;;;;5000844;28;19910;-78
2021/12/15 07:07:25;;;;;;;;;;;0.50;99.90;;;;;;5017543;28;19910;-78
2021/12/15 07:09:51;;;;;;;;;;;0.50;99.90;;;;;;5018331;28;19913;-78
2021/12/15 07:12:16;;;;;;;;;;;0.50;99.90;;;;;;5000726;28;19910;-78
2021/12/15 07:14:42;;;;;;;;;;;0.50;99.90;;;;;;5018353;28;19909;-78
2021/12/15 07:17:14;;;;;;;;;;;0.40;99.90;;;;;;5018105;28;20048;-77
2021/12/15 07:20:06;;;;;;;;;;;0.40;99.90;;;;;;5000645;28;19988;-77
2021/12/15 07:22:43;;;;;;;;;;;0.40;99.90;;;;;;5000743;28;19913;-78
2021/12/15 07:25:12;;;;;;;;;;;0.40;99.90;;;;;;5017179;28;21462;-78
2021/12/15 07:27:38;;;;;;;;;;;0.40;99.90;;;;;;5000346;28;19918;-78
2021/12/15 07:30:04;;;;;;;;;;;0.40;99.90;;;;;;5017870;28;19913;-78
2021/12/15 07:32:30;;;;;;;;;;;0.40;99.90;;;;;;5000747;28;19933;-78
2021/12/15 07:34:55;;;;;;;;;;;0.40;99.90;;;;;;5017931;28;19909;-78
2021/12/15 07:37:21;;;;;;;;;;;0.50;99.90;;;;;;5000477;28;20047;-79
2021/12/15 07:39:55;;;;;;;;;;;0.50;99.90;;;;;;5000515;28;20377;-78
2021/12/15 07:42:30;;;;;;;;;;;0.60;99.90;;;;;;5016515;28;19918;-78
2021/12/15 07:44:56;;;;;;;;;;;0.60;99.90;;;;;;5017830;28;19915;-79
2021/12/15 07:47:22;;;;;;;;;;;0.60;99.90;;;;;;5017995;28;20004;-78
2021/12/15 07:49:47;;;;;;;;;;;0.70;99.90;;;;;;5018004;28;20292;-78
2021/12/15 07:52:13;;;;;;;;;;;0.80;99.90;;;;;;5019013;28;19937;-78
2021/12/15 07:54:39;;;;;;;;;;;0.80;99.90;;;;;;5017637;28;19913;-78
2021/12/15 07:57:07;;;;;;;;;;;0.80;99.90;;;;;;4999873;28;19920;-78
2021/12/15 07:59:33;;;;;;;;;;;0.90;99.90;;;;;;5018274;28;20351;-77
2021/12/15 08:01:59;;;;;;;;;;;0.90;99.90;;;;;;5031083;28;19920;-78
2021/12/15 08:04:24;;;;;;;;;;;1.00;99.90;;;;;;5019211;28;19909;-78
2021/12/15 08:06:50;;;;;;;;;;;1.00;99.90;;;;;;5023223;28;19917;-76
2021/12/15 08:09:16;;;;;;;;;;;1.10;99.90;;;;;;5041686;28;19909;-73
2021/12/15 08:11:42;;;;;;;;;;;1.10;99.90;;;;;;5027064;28;19909;-74
2021/12/15 08:14:08;;;;;;;;;;;1.20;99.90;;;;;;5004845;28;19920;-73
2021/12/15 08:16:34;;;;;;;;;;;1.20;99.90;;;;;;5005910;28;19910;-74
2021/12/15 08:19:00;;;;;;;;;;;1.30;99.90;;;;;;5041012;28;19955;-73
2021/12/15 08:21:25;;;;;;;;;;;1.30;99.90;;;;;;5023372;28;19920;-74
2021/12/15 08:23:51;;;;;;;;;;;1.30;99.90;;;;;;5026405;28;19917;-74
2021/12/15 08:26:17;;;;;;;;;;;1.40;99.90;;;;;;5020597;28;19945;-74
2021/12/15 08:28:43;;;;;;;;;;;1.40;99.90;;;;;;5004765;28;19924;-74
2021/12/15 08:31:09;;;;;;;;;;;1.40;99.90;;;;;;5020203;28;19918;-74
2021/12/15 08:33:35;;;;;;;;;;;1.40;99.90;;;;;;5022049;28;19909;-74
2021/12/15 08:36:03;;;;;;;;;;;1.40;99.90;;;;;;5003364;28;19913;-75
2021/12/15 08:38:32;;;;;;;;;;;1.40;99.90;;;;;;5003694;28;20365;-75
2021/12/15 08:40:59;;;;;;;;;;;1.40;99.90;;;;;;5020459;28;19925;-74
2021/12/15 08:43:25;;;;;;;;;;;1.40;99.90;;;;;;5002705;28;19963;-74
2021/12/15 08:45:53;;;;;;;;;;;1.40;99.90;;;;;;5018119;28;19925;-75
2021/12/15 08:48:19;;;;;;;;;;;1.40;99.90;;;;;;5013657;28;20000;-75
2021/12/15 08:50:45;;;;;;;;;;;1.50;99.90;;;;;;5033061;28;19956;-77
2021/12/15 08:53:11;;;;;;;;;;;1.50;99.90;;;;;;5017795;28;19916;-76
2021/12/15 08:55:39;;;;;;;;;;;1.50;99.90;;;;;;5021132;28;19915;-77
2021/12/15 08:58:05;;;;;;;;;;;1.60;99.90;;;;;;5029565;28;19914;-75
2021/12/15 09:00:31;;;;;;;;;;;1.60;99.90;;;;;;5007303;28;20010;-75
2021/12/15 09:02:57;;;;;;;;;;;1.60;99.90;;;;;;4999702;28;19918;-75
2021/12/15 09:05:23;;;;;;;;;;;1.70;99.90;;;;;;5014458;28;20044;-75
2021/12/15 09:07:50;;;;;;;;;;;1.80;99.90;;;;;;5040421;28;20297;-75
2021/12/15 09:10:16;;;;;;;;;;;1.80;99.90;;;;;;5030572;28;19917;-75
2021/12/15 09:12:41;;;;;;;;;;;1.90;99.90;;;;;;5020135;28;19909;-75
2021/12/15 09:15:07;;;;;;;;;;;2.00;99.90;;;;;;5002806;28;19964;-75
2021/12/15 09:17:33;;;;;;;;;;;2.10;99.90;;;;;;5019743;28;19949;-75
2021/12/15 09:19:59;;;;;;;;;;;2.20;99.90;;;;;;5002255;28;19917;-75
2021/12/15 09:22:24;;;;;;;;;;;2.30;99.90;;;;;;5028365;28;19913;-75
2021/12/15 09:24:50;;;;;;;;;;;2.30;99.90;;;;;;5038628;28;20304;-75
2021/12/15 09:27:15;;;;;;;;;;;2.40;99.90;;;;;;5027524;28;19917;-76
2021/12/15 09:29:41;;;;;;;;;;;2.50;99.90;;;;;;5021168;28;19914;-74
2021/12/15 09:32:07;;;;;;;;;;;2.60;99.90;;;;;;5020121;28;19910;-75
2021/12/15 09:34:32;;;;;;;;;;;2.70;99.90;;;;;;5019447;28;19909;-76
2021/12/15 09:36:58;;;;;;;;;;;2.70;99.90;;;;;;5019926;28;19968;-75
2021/12/15 09:39:24;;;;;;;;;;;2.80;99.90;;;;;;5019952;28;19916;-76
2021/12/15 09:41:51;;;;;;;;;;;2.90;99.90;;;;;;5019665;28;19917;-76
2021/12/15 09:44:21;;;;;;;;;;;3.00;99.90;;;;;;5002117;28;19916;-76
2021/12/15 10:03:07;;;;;;;;;;;3.40;99.90;;;;;;5019446;28;19921;-76
2021/12/15 10:18:56;;;;;;;;;;;3.90;99.90;;;;;;5038802;28;19975;-75
2021/12/15 10:21:25;;;;;;;;;;;4.00;99.90;;;;;;5039024;28;19919;-75
2021/12/15 10:23:52;;;;;;;;;;;4.00;99.90;;;;;;5038941;28;19913;-75
2021/12/15 10:26:19;;;;;;;;;;;4.10;99.90;;;;;;5006724;28;19916;-75
2021/12/15 10:28:49;;;;;;;;;;;4.20;99.90;;;;;;5018545;28;20443;-75
2021/12/15 10:31:16;;;;;;;;;;;4.30;99.90;;;;;;5018842;28;20384;-75
2021/12/15 10:33:43;;;;;;;;;;;4.40;99.90;;;;;;5001720;28;19917;-75
2021/12/15 10:36:09;;;;;;;;;;;4.50;99.90;;;;;;5019687;28;20004;-75
2021/12/15 10:38:42;;;;;;;;;;;4.60;99.90;;;;;;5019638;28;19995;-75
2021/12/15 10:41:08;;;;;;;;;;;4.70;99.90;;;;;;5014092;28;20277;-74
2021/12/15 10:43:40;;;;;;;;;;;4.80;99.90;;;;;;5018518;28;19910;-74
2021/12/15 10:46:08;;;;;;;;;;;4.80;99.90;;;;;;5018469;28;20024;-75
2021/12/15 10:48:42;;;;;;;;;;;4.90;99.90;;;;;;4999311;28;19914;-74
2021/12/15 10:51:20;;;;;;;;;;;5.00;99.90;;;;;;5023959;28;19913;-74
2021/12/15 10:53:47;;;;;;;;;;;5.10;99.90;;;;;;5022762;28;20432;-75
2021/12/15 10:56:14;;;;;;;;;;;5.30;99.90;;;;;;5023586;28;19909;-74
2021/12/15 10:58:44;;;;;;;;;;;5.30;99.90;;;;;;5018731;28;19910;-74
2021/12/15 11:01:28;;;;;;;;;;;5.40;99.90;;;;;;5018385;28;19944;-74
2021/12/15 11:03:54;;;;;;;;;;;5.50;99.90;;;;;;5012357;28;19910;-74
2021/12/15 11:06:21;;;;;;;;;;;5.60;99.90;;;;;;5018262;28;19916;-75
2021/12/15 11:08:47;;;;;;;;;;;5.70;99.90;;;;;;5017343;28;19920;-74
2021/12/15 11:11:22;;;;;;;;;;;5.70;99.90;;;;;;5017278;28;19984;-75
2021/12/15 11:13:48;;;;;;;;;;;5.80;99.90;;;;;;5013241;28;20278;-74
2021/12/15 11:16:14;;;;;;;;;;;5.90;99.90;;;;;;5022046;28;19909;-75
2021/12/15 11:18:39;;;;;;;;;;;6.00;99.90;;;;;;5037842;28;19909;-75
2021/12/15 11:21:08;;;;;;;;;;;6.00;99.90;;;;;;5017425;28;19917;-75
2021/12/15 11:23:33;;;;;;;;;;;6.10;99.90;;;;;;4997751;28;19913;-75
2021/12/15 11:26:01;;;;;;;;;;;6.20;99.90;;;;;;5010876;28;19909;-75
2021/12/15 11:28:40;;;;;;;;;;;6.30;99.90;;;;;;5017228;28;19917;-74
2021/12/15 11:31:08;;;;;;;;;;;6.30;99.90;;;;;;5013879;28;19915;-75
2021/12/15 11:33:37;;;;;;;;;;;6.40;99.90;;;;;;5018071;28;20258;-75
2021/12/15 11:36:05;;;;;;;;;;;6.50;99.90;;;;;;5012021;28;19959;-75
2021/12/15 11:38:30;;;;;;;;;;;6.60;99.90;;;;;;5037681;28;19913;-75
2021/12/15 11:40:56;;;;;;;;;;;6.60;99.90;;;;;;5001045;28;19913;-75
2021/12/15 11:43:37;;;;;;;;;;;6.70;99.90;;;;;;5037693;28;19909;-75
2021/12/15 11:46:12;;;;;;;;;;;6.70;99.90;;;;;;5013841;28;19932;-75
2021/12/15 11:48:39;;;;;;;;;;;6.80;99.90;;;;;;5017976;28;19909;-75
2021/12/15 11:51:06;;;;;;;;;;;6.90;99.90;;;;;;5017886;28;19963;-76
2021/12/15 11:53:32;;;;;;;;;;;7.00;99.90;;;;;;5000193;28;20369;-77
2021/12/15 11:56:14;;;;;;;;;;;7.10;99.90;;;;;;5017461;28;19933;-77
2021/12/15 11:58:40;;;;;;;;;;;7.20;99.90;;;;;;5016245;28;19921;-77
2021/12/15 12:01:08;;;;;;;;;;;7.30;99.90;;;;;;5017311;28;19924;-77
2021/12/15 12:03:34;;;;;;;;;;;7.40;99.90;;;;;;5012535;28;20374;-77
2021/12/15 12:06:01;;;;;;;;;;;7.60;99.90;;;;;;5001808;28;19910;-78
2021/12/15 12:08:27;;;;;;;;;;;7.60;99.90;;;;;;5001032;28;19910;-77
2021/12/15 12:10:53;;;;;;;;;;;7.70;99.90;;;;;;5000910;28;20292;-77
2021/12/15 12:13:24;;;;;;;;;;;7.90;99.90;;;;;;5007702;28;20267;-77
2021/12/15 12:15:52;;;;;;;;;;;8.00;99.90;;;;;;5011132;28;19945;-77
2021/12/15 12:18:19;;;;;;;;;;;8.10;99.90;;;;;;5008866;28;19941;-77
2021/12/15 12:20:46;;;;;;;;;;;8.10;99.90;;;;;;5004149;28;20012;-77
2021/12/15 12:23:14;;;;;;;;;;;8.20;99.90;;;;;;5002600;28;19910;-77
2021/12/15 12:25:42;;;;;;;;;;;8.20;99.90;;;;;;4997177;28;19940;-77
2021/12/15 12:28:12;;;;;;;;;;;8.20;99.90;;;;;;5004633;28;20290;-77
2021/12/15 12:30:39;;;;;;;;;;;8.10;99.90;;;;;;5008912;28;19914;-77
2021/12/15 12:33:09;;;;;;;;;;;8.10;99.90;;;;;;5004393;28;19921;-77
2021/12/15 12:35:38;;;;;;;;;;;8.20;99.90;;;;;;4999877;28;19997;-77
2021/12/15 12:38:19;;;;;;;;;;;8.20;99.90;;;;;;4999006;28;19917;-77
2021/12/15 12:40:47;;;;;;;;;;;8.30;99.90;;;;;;4998548;28;20048;-77
2021/12/15 12:43:18;;;;;;;;;;;8.30;99.90;;;;;;4998831;28;19913;-78
2021/12/15 12:45:51;;;;;;;;;;;8.30;99.90;;;;;;4999049;28;19916;-77
2021/12/15 12:49:13;;;;;;;;;;;8.30;99.90;;;;;;4997285;28;20391;-77
2021/12/15 12:59:28;;;;;;;;;;;8.20;99.90;;;;;;5020080;28;19939;-78
2021/12/15 13:01:54;;;;;;;;;;;8.20;99.90;;;;;;5002309;28;19913;-78
2021/12/15 13:04:20;;;;;;;;;;;8.20;99.90;;;;;;5002786;28;20462;-78
2021/12/15 13:06:46;;;;;;;;;;;8.30;99.90;;;;;;5020290;28;19972;-78
2021/12/15 13:09:17;;;;;;;;;;;8.40;99.90;;;;;;5020748;28;19909;-78
2021/12/15 13:11:47;;;;;;;;;;;8.40;99.90;;;;;;5020120;28;20008;-77
2021/12/15 13:14:17;;;;;;;;;;;8.50;99.90;;;;;;5016654;28;19910;-78
2021/12/15 13:16:50;;;;;;;;;;;8.50;99.90;;;;;;5016242;28;19917;-78
2021/12/15 13:19:18;;;;;;;;;;;8.50;99.90;;;;;;5012426;28;19909;-78
2021/12/15 13:22:17;;;;;;;;;;;8.60;99.90;;;;;;5026189;28;19921;-78
2021/12/15 13:30:39;;;;;;;;;;;8.70;99.90;;;;;;5009318;28;19916;-78
2021/12/15 13:33:12;;;;;;;;;;;8.80;99.90;;;;;;5019918;28;20060;-78
2021/12/15 13:35:47;;;;;;;;;;;8.80;99.90;;;;;;5019834;28;20365;-77
2021/12/15 13:38:16;;;;;;;;;;;8.80;99.90;;;;;;5015209;28;19941;-77
2021/12/15 13:41:07;;;;;;;;;;;8.90;99.90;;;;;;5001042;28;19933;-77
2021/12/15 13:43:34;;;;;;;;;;;9.00;99.90;;;;;;5007639;28;19918;-77
2021/12/15 13:46:00;;;;;;;;;;;9.10;99.90;;;;;;5002034;28;20012;-77
2021/12/15 13:48:45;;;;;;;;;;;9.20;99.90;;;;;;5002156;28;19960;-77
2021/12/15 13:51:11;;;;;;;;;;;9.40;99.90;;;;;;5019674;28;20303;-77
2021/12/15 13:53:36;;;;;;;;;;;9.40;99.90;;;;;;5019057;28;20003;-77
2021/12/15 13:56:02;;;;;;;;;;;9.50;99.90;;;;;;5017849;28;19909;-77
2021/12/15 13:58:31;;;;;;;;;;;9.50;99.90;;;;;;5001816;28;19909;-78
2021/12/15 14:01:05;;;;;;;;;;;9.50;99.90;;;;;;5019320;28;19910;-77
2021/12/15 14:03:43;;;;;;;;;;;9.60;99.90;;;;;;5018326;28;19914;-77
2021/12/15 14:06:09;;;;;;;;;;;9.60;99.90;;;;;;5019504;28;19992;-77
2021/12/15 14:08:40;;;;;;;;;;;9.70;99.90;;;;;;5019300;28;19909;-77
2021/12/15 14:11:07;;;;;;;;;;;9.80;99.90;;;;;;5019215;28;19921;-77
2021/12/15 14:13:41;;;;;;;;;;;9.90;99.90;;;;;;5019089;28;19940;-77
2021/12/15 14:16:07;;;;;;;;;;;9.90;99.90;;;;;;5001550;28;19944;-77
2021/12/15 14:18:33;;;;;;;;;;;9.90;99.90;;;;;;5022477;28;19909;-77
2021/12/15 14:21:01;;;;;;;;;;;9.80;99.90;;;;;;5039024;28;19913;-77
2021/12/15 14:23:29;;;;;;;;;;;9.60;99.90;;;;;;5038786;28;19924;-77
2021/12/15 14:25:55;;;;;;;;;;;9.50;99.90;;;;;;5038727;28;19959;-77
2021/12/15 14:28:22;;;;;;;;;;;9.40;99.90;;;;;;5030854;28;19945;-78
2021/12/15 14:30:50;;;;;;;;;;;9.40;99.90;;;;;;5020216;28;19987;-78
2021/12/15 14:33:27;;;;;;;;;;;9.30;99.90;;;;;;5038479;28;19913;-78
2021/12/15 14:35:53;;;;;;;;;;;9.30;99.90;;;;;;5019117;28;20500;-78
2021/12/15 14:38:32;;;;;;;;;;;9.30;99.90;;;;;;5037471;28;19909;-77
2021/12/15 14:40:57;;;;;;;;;;;9.40;99.90;;;;;;5038242;28;19909;-77
2021/12/15 14:43:23;;;;;;;;;;;9.40;99.90;;;;;;5038332;28;19954;-77
2021/12/15 14:45:49;;;;;;;;;;;9.40;99.90;;;;;;5037732;28;19913;-77
2021/12/15 14:48:19;;;;;;;;;;;9.40;99.90;;;;;;5020628;28;19909;-78
2021/12/15 14:50:45;;;;;;;;;;;9.20;99.90;;;;;;5038228;28;19909;-78
2021/12/15 14:53:10;;;;;;;;;;;9.10;99.90;;;;;;5019833;28;19915;-78
2021/12/15 14:55:36;;;;;;;;;;;9.00;99.90;;;;;;5037710;28;19999;-78
2021/12/15 14:58:02;;;;;;;;;;;9.00;99.90;;;;;;5038361;28;19916;-78
2021/12/15 15:00:32;;;;;;;;;;;8.90;99.90;;;;;;5037893;28;19909;-78
2021/12/15 15:02:59;;;;;;;;;;;8.80;99.90;;;;;;5020322;28;19983;-78
2021/12/15 15:05:29;;;;;;;;;;;8.80;99.90;;;;;;5038056;28;19909;-77
2021/12/15 15:08:06;;;;;;;;;;;8.80;99.90;;;;;;5036891;28;19914;-78
2021/12/15 15:10:33;;;;;;;;;;;8.70;99.90;;;;;;5019872;28;19967;-78
2021/12/15 15:12:59;;;;;;;;;;;8.70;99.90;;;;;;5020017;28;19909;-78
2021/12/15 15:15:31;;;;;;;;;;;8.60;99.90;;;;;;5037190;28;20288;-78
2021/12/15 15:20:49;;;;;;;;;;;8.50;99.90;;;;;;5007367;28;19916;-78
2021/12/15 15:23:17;;;;;;;;;;;8.40;99.90;;;;;;5000193;28;19913;-77
2021/12/15 15:25:45;;;;;;;;;;;8.40;99.90;;;;;;5000251;28;20000;-77
2021/12/15 15:28:12;;;;;;;;;;;8.30;99.90;;;;;;5017807;28;20391;-77
2021/12/15 15:30:39;;;;;;;;;;;8.20;99.90;;;;;;5000444;28;19916;-79
2021/12/15 15:33:23;;;;;;;;;;;8.30;99.90;;;;;;5009395;28;19928;-80
2021/12/15 15:35:51;;;;;;;;;;;8.30;99.90;;;;;;4999628;28;19993;-80
2021/12/15 15:38:20;;;;;;;;;;;8.40;99.90;;;;;;5012231;28;19909;-79
2021/12/15 15:40:53;;;;;;;;;;;8.30;99.90;;;;;;5037266;28;20316;-78
2021/12/15 15:43:32;;;;;;;;;;;8.20;99.90;;;;;;5037463;28;19917;-78
2021/12/15 15:45:58;;;;;;;;;;;8.10;99.90;;;;;;5019701;28;20407;-78
2021/12/15 15:48:26;;;;;;;;;;;8.00;99.90;;;;;;5037459;28;19909;-77
2021/12/15 15:51:04;;;;;;;;;;;7.90;99.90;;;;;;5037351;28;19996;-77
2021/12/15 15:53:30;;;;;;;;;;;7.90;99.90;;;;;;5037657;28;19910;-77
2021/12/15 15:56:04;;;;;;;;;;;8.00;99.90;;;;;;5036939;28;19951;-78
2021/12/15 15:58:30;;;;;;;;;;;8.00;99.90;;;;;;5037411;28;20241;-78
2021/12/15 16:00:57;;;;;;;;;;;8.00;99.90;;;;;;5019278;28;19909;-77
2021/12/15 16:03:25;;;;;;;;;;;7.90;99.90;;;;;;5037448;28;19909;-77
2021/12/15 16:05:50;;;;;;;;;;;7.80;99.90;;;;;;5003893;28;19918;-77
2021/12/15 16:08:16;;;;;;;;;;;7.70;99.90;;;;;;5022467;28;19967;-77
2021/12/15 16:10:44;;;;;;;;;;;7.60;99.90;;;;;;5019589;28;19913;-78
2021/12/15 16:13:12;;;;;;;;;;;7.60;99.90;;;;;;5037386;28;20043;-78
2021/12/15 16:15:42;;;;;;;;;;;7.50;99.90;;;;;;5037165;28;19917;-78